Peru, Nebraska
Current Conditions -  °F | °C
As of 6:35 PM on Sunday 21 Dec 2014 (Local Time) from KAFK Reporting Station
Haze Haze  
Wind Chill: 34°   Ceiling: 800
Heat Index: 42°   Visibility: 5mi
Dew Point: 41°   Wind: 14mph
Humidity: 99%   Direction: 170°S
Pressure: 29.72"   Gusts: NA
Location:  40.47°N, 95.73°W
Report Text: KAFK 220035Z AUTO 17012KT 5SM BR OVC008 05/05 A2972 RMK AO2 T00530052
Loading
Personal Weather Stations






























Interactive Weather Map New forecast layout! Learn more

10-Day Weather Forecast

Advertisements
Track Severe Weather on mobile